Terminal Aerodrome Forecast
Issued by NWS

Home | Current Version | Previous Version | Text Only | Print | Product List | Glossary On
Versions: 1 2 3 4 5 6 7 8 9 10 11 12 13 14 15 16 17 18 19 20 21 22 23 24 25 26 27 28 29 30 31 32 33 34 35 36
806
FTUS45 KLKN 210322 AAA
TAFWMC
TAF AMD
KWMC 210322Z 2103/2124 15020G28KT 6SM -RA BKN040 OVC060
      TEMPO 2103/2107 -RA BR OVC030
     FM210700 21020KT 6SM -RA BKN025 OVC040=

USA.gov is the U.S. government's official web portal to all federal, state and local government web resources and services.